sensor_id;sensor_type;location;lat;lon;timestamp;pressure;altitude;pressure_sealevel;temperature;humidity
12785;BME280;6456;42.680;23.260;2023-07-29T00:01:31;94518.31;;;20.87;61.78
12785;BME280;6456;42.680;23.260;2023-07-29T00:03:58;94469.91;;;20.50;61.82
12785;BME280;6456;42.680;23.260;2023-07-29T00:06:26;94506.69;;;20.68;62.68
12785;BME280;6456;42.680;23.260;2023-07-29T00:08:52;94516.28;;;20.74;62.94
12785;BME280;6456;42.680;23.260;2023-07-29T00:11:19;94432.97;;;20.13;63.54
12785;BME280;6456;42.680;23.260;2023-07-29T00:13:46;94376.28;;;19.77;64.32
12785;BME280;6456;42.680;23.260;2023-07-29T00:16:17;94467.34;;;20.34;65.10
12785;BME280;6456;42.680;23.260;2023-07-29T00:18:46;94476.41;;;20.38;65.79
12785;BME280;6456;42.680;23.260;2023-07-29T00:21:13;94502.25;;;20.53;66.29
12785;BME280;6456;42.680;23.260;2023-07-29T00:23:40;94512.63;;;20.60;66.85
12785;BME280;6456;42.680;23.260;2023-07-29T00:26:07;94515.59;;;20.58;67.19
12785;BME280;6456;42.680;23.260;2023-07-29T00:28:34;94505.25;;;20.47;67.23
12785;BME280;6456;42.680;23.260;2023-07-29T00:31:01;94429.88;;;19.96;67.31
12785;BME280;6456;42.680;23.260;2023-07-29T00:33:30;94438.63;;;20.06;67.54
12785;BME280;6456;42.680;23.260;2023-07-29T00:35:57;94393.91;;;19.78;67.88
12785;BME280;6456;42.680;23.260;2023-07-29T00:38:27;94489.78;;;20.38;67.76
12785;BME280;6456;42.680;23.260;2023-07-29T00:40:53;94427.69;;;20.03;67.89
12785;BME280;6456;42.680;23.260;2023-07-29T00:43:20;94380.06;;;19.71;68.19
12785;BME280;6456;42.680;23.260;2023-07-29T00:45:47;94480.47;;;20.31;68.73
12785;BME280;6456;42.680;23.260;2023-07-29T00:48:15;94444.00;;;20.01;68.10
12785;BME280;6456;42.680;23.260;2023-07-29T00:50:44;94518.06;;;20.44;68.15
12785;BME280;6456;42.680;23.260;2023-07-29T00:53:10;94487.69;;;20.30;69.64
12785;BME280;6456;42.680;23.260;2023-07-29T00:55:37;94492.22;;;20.30;68.25
12785;BME280;6456;42.680;23.260;2023-07-29T00:58:04;94414.47;;;19.77;68.37
12785;BME280;6456;42.680;23.260;2023-07-29T01:00:31;94411.28;;;19.75;67.85
12785;BME280;6456;42.680;23.260;2023-07-29T01:02:58;94487.19;;;20.23;68.90
12785;BME280;6456;42.680;23.260;2023-07-29T01:05:35;94469.63;;;20.02;69.44
12785;BME280;6456;42.680;23.260;2023-07-29T01:08:10;94443.81;;;19.82;69.67
12785;BME280;6456;42.680;23.260;2023-07-29T01:10:53;94495.78;;;20.05;70.08
12785;BME280;6456;42.680;23.260;2023-07-29T01:13:26;94461.69;;;19.82;70.43
12785;BME280;6456;42.680;23.260;2023-07-29T01:15:56;94405.78;;;19.42;70.42
12785;BME280;6456;42.680;23.260;2023-07-29T01:18:28;94428.72;;;19.48;70.77
12785;BME280;6456;42.680;23.260;2023-07-29T01:20:59;94379.13;;;19.21;70.90
12785;BME280;6456;42.680;23.260;2023-07-29T01:23:30;94460.69;;;19.68;71.51
12785;BME280;6456;42.680;23.260;2023-07-29T01:25:57;94452.72;;;19.58;71.33
12785;BME280;6456;42.680;23.260;2023-07-29T01:28:24;94404.47;;;19.24;70.81
12785;BME280;6456;42.680;23.260;2023-07-29T01:30:58;94449.00;;;19.49;71.56
12785;BME280;6456;42.680;23.260;2023-07-29T01:33:34;94398.34;;;19.24;71.67
12785;BME280;6456;42.680;23.260;2023-07-29T01:36:07;94459.38;;;19.55;72.44
12785;BME280;6456;42.680;23.260;2023-07-29T01:38:40;94365.91;;;18.91;72.35
12785;BME280;6456;42.680;23.260;2023-07-29T01:41:08;94505.50;;;19.81;72.99
12785;BME280;6456;42.680;23.260;2023-07-29T01:43:36;94482.56;;;19.65;73.28
12785;BME280;6456;42.680;23.260;2023-07-29T01:46:09;94511.91;;;19.75;73.51
12785;BME280;6456;42.680;23.260;2023-07-29T01:48:36;94493.25;;;19.65;73.95
12785;BME280;6456;42.680;23.260;2023-07-29T01:51:03;94435.16;;;19.21;74.36
12785;BME280;6456;42.680;23.260;2023-07-29T01:53:30;94499.66;;;19.69;74.68
12785;BME280;6456;42.680;23.260;2023-07-29T01:55:58;94474.63;;;19.45;74.76
12785;BME280;6456;42.680;23.260;2023-07-29T01:58:25;94474.91;;;19.48;75.01
12785;BME280;6456;42.680;23.260;2023-07-29T02:00:52;94451.97;;;19.17;75.26
12785;BME280;6456;42.680;23.260;2023-07-29T02:03:18;94473.06;;;19.39;75.49
12785;BME280;6456;42.680;23.260;2023-07-29T02:05:46;94500.47;;;19.54;75.60
12785;BME280;6456;42.680;23.260;2023-07-29T02:08:12;94404.81;;;18.87;76.34
12785;BME280;6456;42.680;23.260;2023-07-29T02:10:39;94447.44;;;19.17;76.32
12785;BME280;6456;42.680;23.260;2023-07-29T02:13:09;94476.22;;;19.36;76.94
12785;BME280;6456;42.680;23.260;2023-07-29T02:15:36;94501.06;;;19.46;77.52
12785;BME280;6456;42.680;23.260;2023-07-29T02:18:03;94489.56;;;19.26;78.05
12785;BME280;6456;42.680;23.260;2023-07-29T02:20:31;94499.16;;;19.27;78.50
12785;BME280;6456;42.680;23.260;2023-07-29T02:22:58;94506.63;;;19.35;78.07
12785;BME280;6456;42.680;23.260;2023-07-29T02:25:25;94500.50;;;19.19;77.85
12785;BME280;6456;42.680;23.260;2023-07-29T02:27:52;94410.97;;;18.58;78.32
12785;BME280;6456;42.680;23.260;2023-07-29T02:30:20;94453.09;;;18.86;78.64
12785;BME280;6456;42.680;23.260;2023-07-29T02:32:47;94492.25;;;19.00;78.88
12785;BME280;6456;42.680;23.260;2023-07-29T02:35:14;94505.84;;;19.14;79.34
12785;BME280;6456;42.680;23.260;2023-07-29T02:37:41;94429.34;;;18.59;79.32
12785;BME280;6456;42.680;23.260;2023-07-29T02:40:09;94503.47;;;19.07;79.85
12785;BME280;6456;42.680;23.260;2023-07-29T02:42:36;94501.06;;;19.06;80.46
12785;BME280;6456;42.680;23.260;2023-07-29T02:45:04;94438.41;;;18.58;80.12
12785;BME280;6456;42.680;23.260;2023-07-29T02:47:36;94486.13;;;18.90;80.53
12785;BME280;6456;42.680;23.260;2023-07-29T02:50:04;94515.19;;;19.06;80.55
12785;BME280;6456;42.680;23.260;2023-07-29T02:52:31;94498.13;;;18.92;80.40
12785;BME280;6456;42.680;23.260;2023-07-29T02:54:58;94418.66;;;18.44;80.19
12785;BME280;6456;42.680;23.260;2023-07-29T02:57:24;94428.00;;;18.46;79.85
12785;BME280;6456;42.680;23.260;2023-07-29T02:59:51;94534.13;;;19.00;79.75
12785;BME280;6456;42.680;23.260;2023-07-29T03:02:18;94478.94;;;18.70;79.82
12785;BME280;6456;42.680;23.260;2023-07-29T03:04:47;94431.44;;;18.37;79.73
12785;BME280;6456;42.680;23.260;2023-07-29T03:07:14;94422.91;;;18.25;79.45
12785;BME280;6456;42.680;23.260;2023-07-29T03:09:41;94532.78;;;18.92;79.76
12785;BME280;6456;42.680;23.260;2023-07-29T03:12:09;94459.72;;;18.48;79.92
12785;BME280;6456;42.680;23.260;2023-07-29T03:14:36;94529.31;;;18.92;80.50
12785;BME280;6456;42.680;23.260;2023-07-29T03:17:03;94532.50;;;18.94;80.04
12785;BME280;6456;42.680;23.260;2023-07-29T03:19:30;94468.25;;;18.50;80.19
12785;BME280;6456;42.680;23.260;2023-07-29T03:21:59;94428.72;;;18.17;80.53
12785;BME280;6456;42.680;23.260;2023-07-29T03:24:25;94483.97;;;18.62;80.24
12785;BME280;6456;42.680;23.260;2023-07-29T03:26:52;94520.25;;;18.83;80.39
12785;BME280;6456;42.680;23.260;2023-07-29T03:29:19;94501.31;;;18.74;80.69
12785;BME280;6456;42.680;23.260;2023-07-29T03:31:46;94530.94;;;18.93;80.75
12785;BME280;6456;42.680;23.260;2023-07-29T03:34:13;94536.50;;;18.96;80.91
12785;BME280;6456;42.680;23.260;2023-07-29T03:36:39;94479.44;;;18.57;81.14
12785;BME280;6456;42.680;23.260;2023-07-29T03:39:08;94418.88;;;18.07;81.19
12785;BME280;6456;42.680;23.260;2023-07-29T03:41:35;94524.78;;;18.82;81.56
12785;BME280;6456;42.680;23.260;2023-07-29T03:44:02;94456.72;;;18.29;81.23
12785;BME280;6456;42.680;23.260;2023-07-29T03:46:29;94533.84;;;18.71;81.42
12785;BME280;6456;42.680;23.260;2023-07-29T03:48:55;94540.22;;;18.65;81.62
12785;BME280;6456;42.680;23.260;2023-07-29T03:51:22;94515.91;;;18.46;81.75
12785;BME280;6456;42.680;23.260;2023-07-29T03:53:50;94535.69;;;18.61;81.86
12785;BME280;6456;42.680;23.260;2023-07-29T03:56:18;94539.41;;;18.65;81.98
12785;BME280;6456;42.680;23.260;2023-07-29T03:58:46;94526.88;;;18.60;81.32
12785;BME280;6456;42.680;23.260;2023-07-29T04:01:13;94515.69;;;18.48;81.49
12785;BME280;6456;42.680;23.260;2023-07-29T04:03:40;94493.78;;;18.36;81.29
12785;BME280;6456;42.680;23.260;2023-07-29T04:06:07;94424.94;;;17.87;82.18
12785;BME280;6456;42.680;23.260;2023-07-29T04:08:34;94511.69;;;18.55;81.90
12785;BME280;6456;42.680;23.260;2023-07-29T04:11:01;94484.66;;;18.22;81.60
12785;BME280;6456;42.680;23.260;2023-07-29T04:13:29;94448.94;;;17.98;81.60
12785;BME280;6456;42.680;23.260;2023-07-29T04:15:56;94430.78;;;17.84;81.60
12785;BME280;6456;42.680;23.260;2023-07-29T04:18:23;94430.28;;;17.87;81.74
12785;BME280;6456;42.680;23.260;2023-07-29T04:20:50;94526.53;;;18.36;81.80
12785;BME280;6456;42.680;23.260;2023-07-29T04:23:17;94462.75;;;17.89;82.33
12785;BME280;6456;42.680;23.260;2023-07-29T04:25:44;94506.53;;;18.29;82.08
12785;BME280;6456;42.680;23.260;2023-07-29T04:28:11;94508.69;;;18.37;82.75
12785;BME280;6456;42.680;23.260;2023-07-29T04:30:39;94532.47;;;18.53;84.15
12785;BME280;6456;42.680;23.260;2023-07-29T04:33:06;94540.22;;;18.65;84.18
12785;BME280;6456;42.680;23.260;2023-07-29T04:35:32;94507.69;;;18.48;82.86
12785;BME280;6456;42.680;23.260;2023-07-29T04:37:59;94549.06;;;18.91;82.84
12785;BME280;6456;42.680;23.260;2023-07-29T04:40:26;94404.22;;;18.05;86.61
12785;BME280;6456;42.680;23.260;2023-07-29T04:42:53;94515.72;;;18.83;86.53
12785;BME280;6456;42.680;23.260;2023-07-29T04:45:20;94547.75;;;19.03;87.54
12785;BME280;6456;42.680;23.260;2023-07-29T04:47:48;94553.06;;;19.13;82.50
12785;BME280;6456;42.680;23.260;2023-07-29T04:50:15;94429.84;;;18.36;82.44
12785;BME280;6456;42.680;23.260;2023-07-29T04:52:42;94475.72;;;18.68;83.45
12785;BME280;6456;42.680;23.260;2023-07-29T04:55:09;94561.84;;;19.34;85.66
12785;BME280;6456;42.680;23.260;2023-07-29T04:57:36;94564.28;;;19.41;86.10
12785;BME280;6456;42.680;23.260;2023-07-29T05:00:03;94561.09;;;19.49;83.34
12785;BME280;6456;42.680;23.260;2023-07-29T05:02:30;94523.72;;;19.18;81.99
12785;BME280;6456;42.680;23.260;2023-07-29T05:04:59;94564.81;;;19.43;82.12
12785;BME280;6456;42.680;23.260;2023-07-29T05:07:26;94556.53;;;19.49;83.86
12785;BME280;6456;42.680;23.260;2023-07-29T05:09:52;94569.34;;;19.57;82.92
12785;BME280;6456;42.680;23.260;2023-07-29T05:12:19;94572.53;;;19.69;82.52
12785;BME280;6456;42.680;23.260;2023-07-29T05:14:46;94509.59;;;19.38;84.14
12785;BME280;6456;42.680;23.260;2023-07-29T05:17:13;94487.44;;;19.33;81.80
12785;BME280;6456;42.680;23.260;2023-07-29T05:19:40;94538.38;;;19.66;82.37
12785;BME280;6456;42.680;23.260;2023-07-29T05:22:09;94559.72;;;19.76;79.94
12785;BME280;6456;42.680;23.260;2023-07-29T05:24:36;94513.56;;;19.56;79.97
12785;BME280;6456;42.680;23.260;2023-07-29T05:27:03;94572.72;;;20.03;79.96
12785;BME280;6456;42.680;23.260;2023-07-29T05:29:30;94585.53;;;20.11;78.41
12785;BME280;6456;42.680;23.260;2023-07-29T05:31:57;94573.72;;;20.17;78.08
12785;BME280;6456;42.680;23.260;2023-07-29T05:34:24;94487.13;;;19.64;78.01
12785;BME280;6456;42.680;23.260;2023-07-29T05:36:51;94545.16;;;20.13;77.96
12785;BME280;6456;42.680;23.260;2023-07-29T05:39:19;94582.78;;;20.41;78.92
12785;BME280;6456;42.680;23.260;2023-07-29T05:41:46;94509.69;;;19.97;78.32
12785;BME280;6456;42.680;23.260;2023-07-29T05:44:13;94590.47;;;20.53;77.96
12785;BME280;6456;42.680;23.260;2023-07-29T05:46:40;94541.41;;;20.19;77.54
12785;BME280;6456;42.680;23.260;2023-07-29T05:49:07;94517.13;;;20.15;78.20
12785;BME280;6456;42.680;23.260;2023-07-29T05:51:34;94594.69;;;20.64;77.81
12785;BME280;6456;42.680;23.260;2023-07-29T05:54:01;94533.88;;;20.36;76.88
12785;BME280;6456;42.680;23.260;2023-07-29T05:56:29;94581.28;;;20.69;75.69
12785;BME280;6456;42.680;23.260;2023-07-29T05:58:57;94581.00;;;20.76;75.38
12785;BME280;6456;42.680;23.260;2023-07-29T06:01:23;94524.72;;;20.47;75.07
12785;BME280;6456;42.680;23.260;2023-07-29T06:03:50;94541.22;;;20.64;73.90
12785;BME280;6456;42.680;23.260;2023-07-29T06:06:17;94512.94;;;20.53;75.06
12785;BME280;6456;42.680;23.260;2023-07-29T06:08:44;94582.41;;;21.07;74.79
12785;BME280;6456;42.680;23.260;2023-07-29T06:11:11;94510.19;;;20.68;75.01
12785;BME280;6456;42.680;23.260;2023-07-29T06:13:39;94501.41;;;20.58;73.62
12785;BME280;6456;42.680;23.260;2023-07-29T06:16:05;94504.53;;;20.70;71.89
12785;BME280;6456;42.680;23.260;2023-07-29T06:18:31;94519.13;;;20.87;72.76
12785;BME280;6456;42.680;23.260;2023-07-29T06:20:58;94490.06;;;20.76;71.34
12785;BME280;6456;42.680;23.260;2023-07-29T06:23:25;94573.94;;;21.34;71.78
12785;BME280;6456;42.680;23.260;2023-07-29T06:25:52;94570.94;;;21.40;72.16
12785;BME280;6456;42.680;23.260;2023-07-29T06:28:19;94505.94;;;21.06;72.30
12785;BME280;6456;42.680;23.260;2023-07-29T06:30:47;94557.28;;;21.42;70.62
12785;BME280;6456;42.680;23.260;2023-07-29T06:33:14;94460.53;;;20.91;70.39
12785;BME280;6456;42.680;23.260;2023-07-29T06:35:41;94536.44;;;21.62;72.32
12785;BME280;6456;42.680;23.260;2023-07-29T06:38:08;94560.34;;;21.83;69.07
12785;BME280;6456;42.680;23.260;2023-07-29T06:40:35;94512.13;;;21.59;69.34
12785;BME280;6456;42.680;23.260;2023-07-29T06:43:02;94558.53;;;22.07;67.95
12785;BME280;6456;42.680;23.260;2023-07-29T06:45:29;94555.38;;;22.00;66.00
12785;BME280;6456;42.680;23.260;2023-07-29T06:47:57;94439.59;;;21.32;65.04
12785;BME280;6456;42.680;23.260;2023-07-29T06:50:25;94524.34;;;21.99;65.59
12785;BME280;6456;42.680;23.260;2023-07-29T06:52:52;94461.16;;;21.69;66.21
12785;BME280;6456;42.680;23.260;2023-07-29T06:55:19;94533.78;;;22.15;64.23
12785;BME280;6456;42.680;23.260;2023-07-29T06:57:46;94472.53;;;21.80;64.18
12785;BME280;6456;42.680;23.260;2023-07-29T07:00:13;94562.94;;;22.40;64.53
12785;BME280;6456;42.680;23.260;2023-07-29T07:02:40;94473.19;;;21.95;65.21
12785;BME280;6456;42.680;23.260;2023-07-29T07:05:08;94569.34;;;22.68;62.69
12785;BME280;6456;42.680;23.260;2023-07-29T07:07:36;94573.63;;;22.87;62.26
12785;BME280;6456;42.680;23.260;2023-07-29T07:10:04;94531.88;;;22.81;60.54
12785;BME280;6456;42.680;23.260;2023-07-29T07:12:31;94564.28;;;23.04;59.68
12785;BME280;6456;42.680;23.260;2023-07-29T07:14:59;94492.53;;;22.53;59.70
12785;BME280;6456;42.680;23.260;2023-07-29T07:17:27;94566.00;;;23.13;58.66
12785;BME280;6456;42.680;23.260;2023-07-29T07:19:54;94557.69;;;23.15;58.96
12785;BME280;6456;42.680;23.260;2023-07-29T07:22:22;94558.91;;;23.22;58.90
12785;BME280;6456;42.680;23.260;2023-07-29T07:24:49;94559.09;;;23.26;60.05
12785;BME280;6456;42.680;23.260;2023-07-29T07:27:16;94515.66;;;23.05;59.79
12785;BME280;6456;42.680;23.260;2023-07-29T07:29:43;94562.00;;;23.48;59.29
12785;BME280;6456;42.680;23.260;2023-07-29T07:32:10;94491.97;;;23.12;58.36
12785;BME280;6456;42.680;23.260;2023-07-29T07:34:37;94554.34;;;23.55;58.01
12785;BME280;6456;42.680;23.260;2023-07-29T07:37:04;94546.72;;;23.62;58.43
12785;BME280;6456;42.680;23.260;2023-07-29T07:39:32;94552.69;;;23.59;57.78
12785;BME280;6456;42.680;23.260;2023-07-29T07:41:59;94542.34;;;23.66;58.10
12785;BME280;6456;42.680;23.260;2023-07-29T07:44:26;94531.13;;;23.78;57.96
12785;BME280;6456;42.680;23.260;2023-07-29T07:46:53;94540.00;;;23.92;58.38
12785;BME280;6456;42.680;23.260;2023-07-29T07:49:20;94463.31;;;23.40;58.41
12785;BME280;6456;42.680;23.260;2023-07-29T07:51:47;94446.34;;;23.26;57.50
12785;BME280;6456;42.680;23.260;2023-07-29T07:54:13;94552.56;;;23.96;57.03
12785;BME280;6456;42.680;23.260;2023-07-29T07:56:42;94553.13;;;23.93;55.82
12785;BME280;6456;42.680;23.260;2023-07-29T07:59:09;94492.00;;;23.58;57.73
12785;BME280;6456;42.680;23.260;2023-07-29T08:01:36;94436.44;;;23.40;56.56
12785;BME280;6456;42.680;23.260;2023-07-29T08:04:03;94475.19;;;23.66;56.34
12785;BME280;6456;42.680;23.260;2023-07-29T08:06:31;94478.88;;;23.84;55.14
12785;BME280;6456;42.680;23.260;2023-07-29T08:08:58;94549.91;;;24.37;55.66
12785;BME280;6456;42.680;23.260;2023-07-29T08:11:25;94474.22;;;23.89;54.44
12785;BME280;6456;42.680;23.260;2023-07-29T08:13:53;94546.00;;;24.43;55.89
12785;BME280;6456;42.680;23.260;2023-07-29T08:16:20;94465.66;;;23.87;54.38
12785;BME280;6456;42.680;23.260;2023-07-29T08:18:47;94555.53;;;24.63;54.01
12785;BME280;6456;42.680;23.260;2023-07-29T08:21:14;94563.50;;;24.68;52.40
12785;BME280;6456;42.680;23.260;2023-07-29T08:23:40;94546.50;;;24.59;53.08
12785;BME280;6456;42.680;23.260;2023-07-29T08:26:07;94555.34;;;24.73;53.45
12785;BME280;6456;42.680;23.260;2023-07-29T08:28:36;94456.59;;;24.24;52.83
12785;BME280;6456;42.680;23.260;2023-07-29T08:31:04;94528.34;;;24.78;52.27
12785;BME280;6456;42.680;23.260;2023-07-29T08:33:32;94545.03;;;25.02;51.54
12785;BME280;6456;42.680;23.260;2023-07-29T08:36:00;94547.66;;;25.16;50.67
12785;BME280;6456;42.680;23.260;2023-07-29T08:38:26;94446.13;;;24.72;50.47
12785;BME280;6456;42.680;23.260;2023-07-29T08:40:58;94544.47;;;25.50;50.80
12785;BME280;6456;42.680;23.260;2023-07-29T08:43:29;94503.16;;;25.40;51.41
12785;BME280;6456;42.680;23.260;2023-07-29T08:45:57;94537.09;;;25.64;49.55
12785;BME280;6456;42.680;23.260;2023-07-29T08:48:31;94539.25;;;25.75;48.72
12785;BME280;6456;42.680;23.260;2023-07-29T08:51:00;94475.41;;;25.31;47.87
12785;BME280;6456;42.680;23.260;2023-07-29T08:53:27;94527.22;;;25.81;47.10
12785;BME280;6456;42.680;23.260;2023-07-29T08:55:55;94538.53;;;25.92;46.80
12785;BME280;6456;42.680;23.260;2023-07-29T08:58:23;94527.31;;;25.98;46.55
12785;BME280;6456;42.680;23.260;2023-07-29T09:00:51;94488.47;;;25.69;45.75
12785;BME280;6456;42.680;23.260;2023-07-29T09:03:17;94515.09;;;26.01;45.85
12785;BME280;6456;42.680;23.260;2023-07-29T09:05:46;94528.06;;;26.21;45.02
12785;BME280;6456;42.680;23.260;2023-07-29T09:08:13;94527.78;;;26.31;44.82
12785;BME280;6456;42.680;23.260;2023-07-29T09:10:40;94510.31;;;26.20;40.73
12785;BME280;6456;42.680;23.260;2023-07-29T09:13:07;94458.97;;;26.03;39.80
12785;BME280;6456;42.680;23.260;2023-07-29T09:15:36;94516.56;;;26.46;40.68
12785;BME280;6456;42.680;23.260;2023-07-29T09:18:09;94511.16;;;26.46;40.89
12785;BME280;6456;42.680;23.260;2023-07-29T09:20:37;94506.22;;;26.40;41.41
12785;BME280;6456;42.680;23.260;2023-07-29T09:23:07;94509.75;;;26.66;42.34
12785;BME280;6456;42.680;23.260;2023-07-29T09:25:35;94457.63;;;26.31;39.80
12785;BME280;6456;42.680;23.260;2023-07-29T09:28:07;94460.84;;;26.42;39.40
12785;BME280;6456;42.680;23.260;2023-07-29T09:30:34;94390.31;;;26.09;38.90
12785;BME280;6456;42.680;23.260;2023-07-29T09:33:01;94447.22;;;26.55;38.61
12785;BME280;6456;42.680;23.260;2023-07-29T09:35:30;94436.41;;;26.47;39.19
12785;BME280;6456;42.680;23.260;2023-07-29T09:37:58;94503.78;;;27.03;39.73
12785;BME280;6456;42.680;23.260;2023-07-29T09:40:26;94489.81;;;26.84;37.35
12785;BME280;6456;42.680;23.260;2023-07-29T09:42:54;94354.03;;;26.15;37.78
12785;BME280;6456;42.680;23.260;2023-07-29T09:45:22;94469.16;;;26.97;37.60
12785;BME280;6456;42.680;23.260;2023-07-29T09:47:50;94488.88;;;27.14;37.93
12785;BME280;6456;42.680;23.260;2023-07-29T09:50:17;94495.06;;;27.15;36.78
12785;BME280;6456;42.680;23.260;2023-07-29T09:52:44;94492.84;;;27.17;36.41
12785;BME280;6456;42.680;23.260;2023-07-29T09:55:12;94470.75;;;27.15;36.78
12785;BME280;6456;42.680;23.260;2023-07-29T09:57:41;94485.16;;;27.36;36.64
12785;BME280;6456;42.680;23.260;2023-07-29T10:00:11;94477.25;;;27.48;36.40
12785;BME280;6456;42.680;23.260;2023-07-29T10:02:39;94420.06;;;27.12;35.95
12785;BME280;6456;42.680;23.260;2023-07-29T10:05:07;94439.09;;;27.32;35.48
12785;BME280;6456;42.680;23.260;2023-07-29T10:07:36;94481.81;;;27.65;35.63
12785;BME280;6456;42.680;23.260;2023-07-29T10:10:04;94470.50;;;27.71;35.78
12785;BME280;6456;42.680;23.260;2023-07-29T10:12:33;94471.94;;;27.69;34.60
12785;BME280;6456;42.680;23.260;2023-07-29T10:15:04;94463.16;;;27.80;35.12
12785;BME280;6456;42.680;23.260;2023-07-29T10:17:34;94380.94;;;27.35;34.58
12785;BME280;6456;42.680;23.260;2023-07-29T10:20:01;94466.63;;;27.89;33.55
12785;BME280;6456;42.680;23.260;2023-07-29T10:22:38;94449.31;;;27.82;33.42
12785;BME280;6456;42.680;23.260;2023-07-29T10:25:08;94381.53;;;27.49;33.59
12785;BME280;6456;42.680;23.260;2023-07-29T10:27:42;94444.31;;;28.01;34.13
12785;BME280;6456;42.680;23.260;2023-07-29T10:30:11;94387.47;;;27.80;33.97
12785;BME280;6456;42.680;23.260;2023-07-29T10:32:42;94443.47;;;28.18;34.25
12785;BME280;6456;42.680;23.260;2023-07-29T10:35:11;94393.47;;;27.86;33.22
12785;BME280;6456;42.680;23.260;2023-07-29T10:37:39;94435.78;;;28.28;33.13
12785;BME280;6456;42.680;23.260;2023-07-29T10:40:08;94428.50;;;28.41;32.48
12785;BME280;6456;42.680;23.260;2023-07-29T10:42:35;94433.53;;;28.51;32.75
12785;BME280;6456;42.680;23.260;2023-07-29T10:45:19;94380.28;;;28.14;31.30
12785;BME280;6456;42.680;23.260;2023-07-29T10:47:46;94436.84;;;28.56;31.71
12785;BME280;6456;42.680;23.260;2023-07-29T10:50:18;94422.09;;;28.75;31.49
12785;BME280;6456;42.680;23.260;2023-07-29T10:52:49;94368.84;;;28.37;31.71
12785;BME280;6456;42.680;23.260;2023-07-29T10:55:24;94400.16;;;28.68;30.63
12785;BME280;6456;42.680;23.260;2023-07-29T10:57:52;94421.81;;;28.88;30.33
12785;BME280;6456;42.680;23.260;2023-07-29T11:00:20;94339.94;;;28.50;30.32
12785;BME280;6456;42.680;23.260;2023-07-29T11:02:59;94311.03;;;28.42;29.64
12785;BME280;6456;42.680;23.260;2023-07-29T11:05:26;94382.16;;;29.04;29.62
12785;BME280;6456;42.680;23.260;2023-07-29T11:07:53;94325.53;;;28.58;29.40
12785;BME280;6456;42.680;23.260;2023-07-29T11:10:21;94397.91;;;28.90;30.01
12785;BME280;6456;42.680;23.260;2023-07-29T11:12:49;94370.50;;;28.71;29.40
12785;BME280;6456;42.680;23.260;2023-07-29T11:15:19;94401.78;;;29.01;29.73
12785;BME280;6456;42.680;23.260;2023-07-29T11:17:50;94402.75;;;29.17;29.83
12785;BME280;6456;42.680;23.260;2023-07-29T11:20:18;94338.09;;;28.83;29.41
12785;BME280;6456;42.680;23.260;2023-07-29T11:22:45;94360.47;;;29.04;28.53
12785;BME280;6456;42.680;23.260;2023-07-29T11:25:13;94328.84;;;28.96;28.88
12785;BME280;6456;42.680;23.260;2023-07-29T11:27:40;94384.41;;;29.35;27.67
12785;BME280;6456;42.680;23.260;2023-07-29T11:30:09;94309.84;;;28.84;28.94
12785;BME280;6456;42.680;23.260;2023-07-29T11:32:37;94397.78;;;29.52;28.12
12785;BME280;6456;42.680;23.260;2023-07-29T11:35:08;94299.41;;;29.07;28.24
12785;BME280;6456;42.680;23.260;2023-07-29T11:37:36;94379.31;;;29.78;27.77
12785;BME280;6456;42.680;23.260;2023-07-29T11:40:05;94392.44;;;30.01;27.22
12785;BME280;6456;42.680;23.260;2023-07-29T11:42:32;94390.50;;;30.13;27.18
12785;BME280;6456;42.680;23.260;2023-07-29T11:45:00;94391.28;;;30.14;26.55
12785;BME280;6456;42.680;23.260;2023-07-29T11:47:27;94288.66;;;29.43;26.88
12785;BME280;6456;42.680;23.260;2023-07-29T11:49:54;94375.47;;;30.16;26.70
12785;BME280;6456;42.680;23.260;2023-07-29T11:52:26;94342.22;;;29.95;25.94
12785;BME280;6456;42.680;23.260;2023-07-29T11:54:53;94384.59;;;30.11;26.19
12785;BME280;6456;42.680;23.260;2023-07-29T11:57:21;94377.97;;;30.09;25.96
12785;BME280;6456;42.680;23.260;2023-07-29T11:59:48;94379.44;;;30.06;26.02
12785;BME280;6456;42.680;23.260;2023-07-29T12:02:16;94385.06;;;30.13;25.48
12785;BME280;6456;42.680;23.260;2023-07-29T12:04:43;94371.75;;;30.08;25.63
12785;BME280;6456;42.680;23.260;2023-07-29T12:07:12;94281.78;;;29.58;26.25
12785;BME280;6456;42.680;23.260;2023-07-29T12:09:41;94301.56;;;29.82;26.18
12785;BME280;6456;42.680;23.260;2023-07-29T12:12:10;94366.53;;;30.15;25.21
12785;BME280;6456;42.680;23.260;2023-07-29T12:14:37;94369.91;;;30.24;25.83
12785;BME280;6456;42.680;23.260;2023-07-29T12:17:05;94303.47;;;29.82;25.35
12785;BME280;6456;42.680;23.260;2023-07-29T12:19:33;94337.16;;;30.05;25.67
12785;BME280;6456;42.680;23.260;2023-07-29T12:22:00;94344.69;;;30.12;25.51
12785;BME280;6456;42.680;23.260;2023-07-29T12:24:29;94308.56;;;29.96;25.17
12785;BME280;6456;42.680;23.260;2023-07-29T12:26:58;94325.38;;;30.13;24.95
12785;BME280;6456;42.680;23.260;2023-07-29T12:29:25;94342.44;;;30.38;25.01
12785;BME280;6456;42.680;23.260;2023-07-29T12:31:57;94339.69;;;30.50;25.09
12785;BME280;6456;42.680;23.260;2023-07-29T12:34:25;94287.44;;;30.29;25.47
12785;BME280;6456;42.680;23.260;2023-07-29T12:36:53;94366.75;;;30.74;25.15
12785;BME280;6456;42.680;23.260;2023-07-29T12:39:22;94328.13;;;30.53;25.12
12785;BME280;6456;42.680;23.260;2023-07-29T12:41:51;94311.34;;;30.35;25.08
12785;BME280;6456;42.680;23.260;2023-07-29T12:44:19;94290.63;;;30.43;24.77
12785;BME280;6456;42.680;23.260;2023-07-29T12:46:46;94281.19;;;30.53;24.13
12785;BME280;6456;42.680;23.260;2023-07-29T12:49:13;94351.72;;;31.04;24.78
12785;BME280;6456;42.680;23.260;2023-07-29T12:51:40;94352.06;;;31.03;25.10
12785;BME280;6456;42.680;23.260;2023-07-29T12:54:07;94344.34;;;31.05;23.92
12785;BME280;6456;42.680;23.260;2023-07-29T12:56:34;94339.59;;;31.02;24.15
12785;BME280;6456;42.680;23.260;2023-07-29T12:59:01;94274.41;;;30.46;24.62
12785;BME280;6456;42.680;23.260;2023-07-29T13:01:30;94317.72;;;30.83;24.86
12785;BME280;6456;42.680;23.260;2023-07-29T13:03:57;94355.84;;;31.14;24.37